sensor_id;sensor_type;location;lat;lon;timestamp;P1;durP1;ratioP1;P2;durP2;ratioP2
48875;SDS011;34689;51.644;5.618;2022-12-19T00:00:45;36.63;;;15.38;;
48875;SDS011;34689;51.644;5.618;2022-12-19T00:03:12;32.92;;;13.13;;
48875;SDS011;34689;51.644;5.618;2022-12-19T00:05:38;30.38;;;13.85;;
48875;SDS011;34689;51.644;5.618;2022-12-19T00:08:14;37.33;;;15.32;;
48875;SDS011;34689;51.644;5.618;2022-12-19T00:10:41;33.88;;;13.65;;
48875;SDS011;34689;51.644;5.618;2022-12-19T00:13:07;34.97;;;15.68;;
48875;SDS011;34689;51.644;5.618;2022-12-19T00:15:34;38.33;;;16.48;;
48875;SDS011;34689;51.644;5.618;2022-12-19T00:18:00;31.58;;;14.07;;
48875;SDS011;34689;51.644;5.618;2022-12-19T00:20:26;39.45;;;13.63;;
48875;SDS011;34689;51.644;5.618;2022-12-19T00:22:52;40.45;;;16.60;;
48875;SDS011;34689;51.644;5.618;2022-12-19T00:25:17;43.92;;;17.15;;
48875;SDS011;34689;51.644;5.618;2022-12-19T00:27:46;30.50;;;13.25;;
48875;SDS011;34689;51.644;5.618;2022-12-19T00:30:12;46.03;;;16.10;;
48875;SDS011;34689;51.644;5.618;2022-12-19T00:32:37;37.83;;;14.18;;
48875;SDS011;34689;51.644;5.618;2022-12-19T00:35:03;39.30;;;14.57;;
48875;SDS011;34689;51.644;5.618;2022-12-19T00:37:29;33.80;;;15.07;;
48875;SDS011;34689;51.644;5.618;2022-12-19T00:39:55;36.13;;;14.13;;
48875;SDS011;34689;51.644;5.618;2022-12-19T00:42:21;37.88;;;14.10;;
48875;SDS011;34689;51.644;5.618;2022-12-19T00:44:46;31.85;;;13.43;;
48875;SDS011;34689;51.644;5.618;2022-12-19T00:47:12;35.42;;;13.30;;
48875;SDS011;34689;51.644;5.618;2022-12-19T00:49:38;37.55;;;13.95;;
48875;SDS011;34689;51.644;5.618;2022-12-19T00:52:03;36.28;;;13.43;;
48875;SDS011;34689;51.644;5.618;2022-12-19T00:54:29;27.77;;;12.32;;
48875;SDS011;34689;51.644;5.618;2022-12-19T00:56:55;39.90;;;13.95;;
48875;SDS011;34689;51.644;5.618;2022-12-19T00:59:20;41.42;;;16.40;;
48875;SDS011;34689;51.644;5.618;2022-12-19T01:01:46;26.50;;;11.25;;
48875;SDS011;34689;51.644;5.618;2022-12-19T01:04:12;31.60;;;13.75;;
48875;SDS011;34689;51.644;5.618;2022-12-19T01:06:39;32.38;;;13.20;;
48875;SDS011;34689;51.644;5.618;2022-12-19T01:09:06;43.78;;;16.30;;
48875;SDS011;34689;51.644;5.618;2022-12-19T01:11:33;39.08;;;15.15;;
48875;SDS011;34689;51.644;5.618;2022-12-19T01:14:17;43.28;;;17.77;;
48875;SDS011;34689;51.644;5.618;2022-12-19T01:16:43;31.92;;;13.30;;
48875;SDS011;34689;51.644;5.618;2022-12-19T01:19:09;35.90;;;12.90;;
48875;SDS011;34689;51.644;5.618;2022-12-19T01:21:34;42.70;;;16.05;;
48875;SDS011;34689;51.644;5.618;2022-12-19T01:24:01;38.95;;;16.02;;
48875;SDS011;34689;51.644;5.618;2022-12-19T01:26:27;38.30;;;12.35;;
48875;SDS011;34689;51.644;5.618;2022-12-19T01:28:53;26.95;;;10.82;;
48875;SDS011;34689;51.644;5.618;2022-12-19T01:31:19;28.20;;;11.80;;
48875;SDS011;34689;51.644;5.618;2022-12-19T01:33:46;36.88;;;14.07;;
48875;SDS011;34689;51.644;5.618;2022-12-19T01:36:12;43.58;;;16.83;;
48875;SDS011;34689;51.644;5.618;2022-12-19T01:38:37;42.83;;;14.70;;
48875;SDS011;34689;51.644;5.618;2022-12-19T01:41:03;41.75;;;16.35;;
48875;SDS011;34689;51.644;5.618;2022-12-19T01:43:32;36.22;;;15.27;;
48875;SDS011;34689;51.644;5.618;2022-12-19T01:46:17;32.67;;;13.75;;
48875;SDS011;34689;51.644;5.618;2022-12-19T01:49:02;34.80;;;14.43;;
48875;SDS011;34689;51.644;5.618;2022-12-19T01:51:34;33.55;;;12.32;;
48875;SDS011;34689;51.644;5.618;2022-12-19T01:54:06;37.85;;;14.23;;
48875;SDS011;34689;51.644;5.618;2022-12-19T01:56:38;36.95;;;16.00;;
48875;SDS011;34689;51.644;5.618;2022-12-19T01:59:13;45.05;;;17.42;;
48875;SDS011;34689;51.644;5.618;2022-12-19T02:01:50;38.20;;;15.33;;
48875;SDS011;34689;51.644;5.618;2022-12-19T02:04:23;32.00;;;11.32;;
48875;SDS011;34689;51.644;5.618;2022-12-19T02:06:50;38.50;;;15.75;;
48875;SDS011;34689;51.644;5.618;2022-12-19T02:09:16;35.95;;;13.75;;
48875;SDS011;34689;51.644;5.618;2022-12-19T02:11:43;29.92;;;14.43;;
48875;SDS011;34689;51.644;5.618;2022-12-19T02:14:08;25.50;;;10.95;;
48875;SDS011;34689;51.644;5.618;2022-12-19T02:19:18;39.20;;;15.30;;
48875;SDS011;34689;51.644;5.618;2022-12-19T02:22:08;40.25;;;15.60;;
48875;SDS011;34689;51.644;5.618;2022-12-19T02:32:47;29.48;;;11.43;;
48875;SDS011;34689;51.644;5.618;2022-12-19T02:35:36;31.90;;;14.60;;
48875;SDS011;34689;51.644;5.618;2022-12-19T02:38:14;33.90;;;14.27;;
48875;SDS011;34689;51.644;5.618;2022-12-19T02:40:55;37.63;;;13.55;;
48875;SDS011;34689;51.644;5.618;2022-12-19T02:43:28;40.25;;;15.55;;
48875;SDS011;34689;51.644;5.618;2022-12-19T02:45:57;33.67;;;14.43;;
48875;SDS011;34689;51.644;5.618;2022-12-19T02:48:24;29.63;;;12.20;;
48875;SDS011;34689;51.644;5.618;2022-12-19T02:50:51;29.60;;;12.18;;
48875;SDS011;34689;51.644;5.618;2022-12-19T02:53:17;21.75;;;9.43;;
48875;SDS011;34689;51.644;5.618;2022-12-19T02:55:48;44.40;;;15.23;;
48875;SDS011;34689;51.644;5.618;2022-12-19T03:01:14;30.90;;;11.20;;
48875;SDS011;34689;51.644;5.618;2022-12-19T03:06:49;29.70;;;12.05;;
48875;SDS011;34689;51.644;5.618;2022-12-19T03:12:15;34.83;;;12.20;;
48875;SDS011;34689;51.644;5.618;2022-12-19T03:14:48;26.50;;;11.52;;
48875;SDS011;34689;51.644;5.618;2022-12-19T03:17:15;26.83;;;10.02;;
48875;SDS011;34689;51.644;5.618;2022-12-19T03:19:41;37.63;;;14.63;;
48875;SDS011;34689;51.644;5.618;2022-12-19T03:22:07;33.95;;;13.68;;
48875;SDS011;34689;51.644;5.618;2022-12-19T03:24:33;40.15;;;14.38;;
48875;SDS011;34689;51.644;5.618;2022-12-19T03:27:13;28.40;;;11.82;;
48875;SDS011;34689;51.644;5.618;2022-12-19T03:29:47;33.63;;;13.65;;
48875;SDS011;34689;51.644;5.618;2022-12-19T03:32:14;38.20;;;16.00;;
48875;SDS011;34689;51.644;5.618;2022-12-19T03:34:49;34.42;;;13.55;;
48875;SDS011;34689;51.644;5.618;2022-12-19T03:37:27;23.08;;;10.65;;
48875;SDS011;34689;51.644;5.618;2022-12-19T03:40:00;38.67;;;14.77;;
48875;SDS011;34689;51.644;5.618;2022-12-19T03:42:29;36.90;;;14.15;;
48875;SDS011;34689;51.644;5.618;2022-12-19T03:45:17;25.42;;;12.07;;
48875;SDS011;34689;51.644;5.618;2022-12-19T03:47:50;36.28;;;13.32;;
48875;SDS011;34689;51.644;5.618;2022-12-19T03:52:55;28.17;;;11.20;;
48875;SDS011;34689;51.644;5.618;2022-12-19T03:55:59;28.73;;;13.30;;
48875;SDS011;34689;51.644;5.618;2022-12-19T03:58:26;21.90;;;9.63;;
48875;SDS011;34689;51.644;5.618;2022-12-19T04:00:58;32.58;;;11.82;;
48875;SDS011;34689;51.644;5.618;2022-12-19T04:03:25;29.45;;;12.15;;
48875;SDS011;34689;51.644;5.618;2022-12-19T04:05:52;28.25;;;11.70;;
48875;SDS011;34689;51.644;5.618;2022-12-19T04:08:21;18.77;;;9.00;;
48875;SDS011;34689;51.644;5.618;2022-12-19T04:10:49;23.67;;;9.32;;
48875;SDS011;34689;51.644;5.618;2022-12-19T04:13:22;25.45;;;10.65;;
48875;SDS011;34689;51.644;5.618;2022-12-19T04:15:59;22.05;;;9.95;;
48875;SDS011;34689;51.644;5.618;2022-12-19T04:18:37;23.27;;;10.18;;
48875;SDS011;34689;51.644;5.618;2022-12-19T04:21:18;25.02;;;10.25;;
48875;SDS011;34689;51.644;5.618;2022-12-19T04:23:52;17.55;;;8.73;;
48875;SDS011;34689;51.644;5.618;2022-12-19T04:26:22;24.58;;;9.38;;
48875;SDS011;34689;51.644;5.618;2022-12-19T04:28:51;20.70;;;8.48;;
48875;SDS011;34689;51.644;5.618;2022-12-19T04:31:20;22.30;;;8.88;;
48875;SDS011;34689;51.644;5.618;2022-12-19T04:33:46;21.05;;;9.52;;
48875;SDS011;34689;51.644;5.618;2022-12-19T04:36:12;18.85;;;8.27;;
48875;SDS011;34689;51.644;5.618;2022-12-19T04:38:38;18.27;;;8.93;;
48875;SDS011;34689;51.644;5.618;2022-12-19T04:41:04;22.88;;;9.95;;
48875;SDS011;34689;51.644;5.618;2022-12-19T04:43:30;17.92;;;7.43;;
48875;SDS011;34689;51.644;5.618;2022-12-19T04:45:56;15.55;;;8.13;;
48875;SDS011;34689;51.644;5.618;2022-12-19T04:48:21;21.85;;;9.48;;
48875;SDS011;34689;51.644;5.618;2022-12-19T04:50:47;19.67;;;9.23;;
48875;SDS011;34689;51.644;5.618;2022-12-19T04:53:13;16.85;;;7.50;;
48875;SDS011;34689;51.644;5.618;2022-12-19T04:55:39;23.55;;;10.73;;
48875;SDS011;34689;51.644;5.618;2022-12-19T04:58:05;13.75;;;7.35;;
48875;SDS011;34689;51.644;5.618;2022-12-19T05:00:31;16.40;;;7.55;;
48875;SDS011;34689;51.644;5.618;2022-12-19T05:02:58;17.65;;;6.88;;
48875;SDS011;34689;51.644;5.618;2022-12-19T05:05:24;14.15;;;6.75;;
48875;SDS011;34689;51.644;5.618;2022-12-19T05:07:50;13.10;;;6.15;;
48875;SDS011;34689;51.644;5.618;2022-12-19T05:10:15;16.85;;;8.27;;
48875;SDS011;34689;51.644;5.618;2022-12-19T05:12:41;16.75;;;8.02;;
48875;SDS011;34689;51.644;5.618;2022-12-19T05:15:07;17.77;;;7.88;;
48875;SDS011;34689;51.644;5.618;2022-12-19T05:17:34;12.77;;;5.75;;
48875;SDS011;34689;51.644;5.618;2022-12-19T05:20:00;8.75;;;4.88;;
48875;SDS011;34689;51.644;5.618;2022-12-19T05:22:26;17.88;;;6.78;;
48875;SDS011;34689;51.644;5.618;2022-12-19T05:24:52;8.85;;;5.18;;
48875;SDS011;34689;51.644;5.618;2022-12-19T05:27:17;14.38;;;6.63;;
48875;SDS011;34689;51.644;5.618;2022-12-19T05:29:43;11.10;;;5.80;;
48875;SDS011;34689;51.644;5.618;2022-12-19T05:32:09;13.50;;;6.03;;
48875;SDS011;34689;51.644;5.618;2022-12-19T05:34:35;18.63;;;6.75;;
48875;SDS011;34689;51.644;5.618;2022-12-19T05:37:01;11.35;;;5.55;;
48875;SDS011;34689;51.644;5.618;2022-12-19T05:39:27;17.65;;;7.15;;
48875;SDS011;34689;51.644;5.618;2022-12-19T05:41:53;13.55;;;5.22;;
48875;SDS011;34689;51.644;5.618;2022-12-19T05:44:19;18.00;;;7.05;;
48875;SDS011;34689;51.644;5.618;2022-12-19T05:46:45;16.60;;;7.53;;
48875;SDS011;34689;51.644;5.618;2022-12-19T05:49:12;24.23;;;9.65;;
48875;SDS011;34689;51.644;5.618;2022-12-19T05:51:46;8.77;;;5.30;;
48875;SDS011;34689;51.644;5.618;2022-12-19T05:54:12;11.13;;;6.10;;
48875;SDS011;34689;51.644;5.618;2022-12-19T05:56:37;15.80;;;7.45;;
48875;SDS011;34689;51.644;5.618;2022-12-19T05:59:03;11.57;;;6.00;;
48875;SDS011;34689;51.644;5.618;2022-12-19T06:01:29;14.63;;;7.28;;
48875;SDS011;34689;51.644;5.618;2022-12-19T06:03:56;9.23;;;5.38;;
48875;SDS011;34689;51.644;5.618;2022-12-19T06:06:23;12.95;;;5.93;;
48875;SDS011;34689;51.644;5.618;2022-12-19T06:08:53;15.45;;;5.95;;
48875;SDS011;34689;51.644;5.618;2022-12-19T06:11:20;15.52;;;6.38;;
48875;SDS011;34689;51.644;5.618;2022-12-19T06:13:46;18.27;;;7.90;;
48875;SDS011;34689;51.644;5.618;2022-12-19T06:16:13;12.98;;;5.80;;
48875;SDS011;34689;51.644;5.618;2022-12-19T06:18:40;17.90;;;7.03;;
48875;SDS011;34689;51.644;5.618;2022-12-19T06:21:17;16.35;;;6.88;;
48875;SDS011;34689;51.644;5.618;2022-12-19T06:23:45;15.15;;;5.90;;
48875;SDS011;34689;51.644;5.618;2022-12-19T06:26:12;14.30;;;6.47;;
48875;SDS011;34689;51.644;5.618;2022-12-19T06:28:39;15.93;;;6.55;;
48875;SDS011;34689;51.644;5.618;2022-12-19T06:31:06;12.25;;;6.18;;
48875;SDS011;34689;51.644;5.618;2022-12-19T06:33:32;10.23;;;5.22;;
48875;SDS011;34689;51.644;5.618;2022-12-19T06:35:59;9.40;;;5.53;;
48875;SDS011;34689;51.644;5.618;2022-12-19T06:38:26;12.35;;;5.38;;
48875;SDS011;34689;51.644;5.618;2022-12-19T06:40:52;8.70;;;4.72;;
48875;SDS011;34689;51.644;5.618;2022-12-19T06:43:37;10.57;;;5.45;;
48875;SDS011;34689;51.644;5.618;2022-12-19T06:46:03;7.22;;;4.90;;
48875;SDS011;34689;51.644;5.618;2022-12-19T06:48:29;13.43;;;5.75;;
48875;SDS011;34689;51.644;5.618;2022-12-19T06:50:55;12.82;;;6.57;;
48875;SDS011;34689;51.644;5.618;2022-12-19T06:53:21;16.63;;;6.72;;
48875;SDS011;34689;51.644;5.618;2022-12-19T06:55:51;10.27;;;5.30;;
48875;SDS011;34689;51.644;5.618;2022-12-19T06:58:19;10.77;;;5.22;;
48875;SDS011;34689;51.644;5.618;2022-12-19T07:00:45;11.52;;;5.82;;
48875;SDS011;34689;51.644;5.618;2022-12-19T07:03:11;13.52;;;6.43;;
48875;SDS011;34689;51.644;5.618;2022-12-19T07:05:41;10.70;;;5.65;;
48875;SDS011;34689;51.644;5.618;2022-12-19T07:08:08;8.77;;;4.85;;
48875;SDS011;34689;51.644;5.618;2022-12-19T07:10:34;11.57;;;5.97;;
48875;SDS011;34689;51.644;5.618;2022-12-19T07:13:00;15.60;;;5.55;;
48875;SDS011;34689;51.644;5.618;2022-12-19T07:15:26;9.80;;;4.85;;
48875;SDS011;34689;51.644;5.618;2022-12-19T07:17:54;12.55;;;6.50;;
48875;SDS011;34689;51.644;5.618;2022-12-19T07:20:20;10.38;;;5.13;;
48875;SDS011;34689;51.644;5.618;2022-12-19T07:22:46;8.07;;;4.25;;
48875;SDS011;34689;51.644;5.618;2022-12-19T07:25:12;12.80;;;6.40;;
48875;SDS011;34689;51.644;5.618;2022-12-19T07:27:38;11.38;;;5.63;;
48875;SDS011;34689;51.644;5.618;2022-12-19T07:30:04;12.05;;;6.30;;
48875;SDS011;34689;51.644;5.618;2022-12-19T07:32:32;13.50;;;5.30;;
48875;SDS011;34689;51.644;5.618;2022-12-19T07:34:58;7.18;;;4.50;;
48875;SDS011;34689;51.644;5.618;2022-12-19T07:37:23;8.25;;;4.53;;
48875;SDS011;34689;51.644;5.618;2022-12-19T07:39:49;8.13;;;4.57;;
48875;SDS011;34689;51.644;5.618;2022-12-19T07:42:17;9.38;;;5.25;;
48875;SDS011;34689;51.644;5.618;2022-12-19T07:44:43;8.32;;;5.35;;
48875;SDS011;34689;51.644;5.618;2022-12-19T07:47:08;8.80;;;4.43;;
48875;SDS011;34689;51.644;5.618;2022-12-19T07:49:34;8.57;;;4.45;;
48875;SDS011;34689;51.644;5.618;2022-12-19T07:52:00;8.13;;;4.28;;
48875;SDS011;34689;51.644;5.618;2022-12-19T07:54:26;10.88;;;5.80;;
48875;SDS011;34689;51.644;5.618;2022-12-19T07:56:52;15.60;;;6.07;;
48875;SDS011;34689;51.644;5.618;2022-12-19T07:59:18;12.15;;;6.22;;
48875;SDS011;34689;51.644;5.618;2022-12-19T08:01:44;6.28;;;3.78;;
48875;SDS011;34689;51.644;5.618;2022-12-19T08:04:10;8.15;;;5.00;;
48875;SDS011;34689;51.644;5.618;2022-12-19T08:06:35;7.80;;;4.65;;
48875;SDS011;34689;51.644;5.618;2022-12-19T08:09:01;10.73;;;5.13;;
48875;SDS011;34689;51.644;5.618;2022-12-19T08:11:27;8.65;;;4.80;;
48875;SDS011;34689;51.644;5.618;2022-12-19T08:13:54;7.13;;;4.47;;
48875;SDS011;34689;51.644;5.618;2022-12-19T08:16:21;7.00;;;3.72;;
48875;SDS011;34689;51.644;5.618;2022-12-19T08:18:48;6.65;;;3.75;;
48875;SDS011;34689;51.644;5.618;2022-12-19T08:21:14;8.13;;;4.32;;
48875;SDS011;34689;51.644;5.618;2022-12-19T08:23:39;10.32;;;4.75;;
48875;SDS011;34689;51.644;5.618;2022-12-19T08:26:06;7.32;;;3.53;;
48875;SDS011;34689;51.644;5.618;2022-12-19T08:28:34;12.55;;;5.00;;
48875;SDS011;34689;51.644;5.618;2022-12-19T08:31:11;8.80;;;4.47;;
48875;SDS011;34689;51.644;5.618;2022-12-19T08:33:38;5.97;;;3.53;;
48875;SDS011;34689;51.644;5.618;2022-12-19T08:36:05;9.40;;;5.05;;
48875;SDS011;34689;51.644;5.618;2022-12-19T08:38:33;10.18;;;5.40;;
48875;SDS011;34689;51.644;5.618;2022-12-19T08:40:59;11.60;;;4.28;;
48875;SDS011;34689;51.644;5.618;2022-12-19T08:43:25;7.75;;;4.05;;
48875;SDS011;34689;51.644;5.618;2022-12-19T08:45:53;9.73;;;4.20;;
48875;SDS011;34689;51.644;5.618;2022-12-19T08:48:19;9.77;;;4.95;;
48875;SDS011;34689;51.644;5.618;2022-12-19T08:50:49;8.65;;;3.85;;
48875;SDS011;34689;51.644;5.618;2022-12-19T08:53:14;5.15;;;3.58;;
48875;SDS011;34689;51.644;5.618;2022-12-19T08:55:40;5.28;;;3.55;;
48875;SDS011;34689;51.644;5.618;2022-12-19T08:58:06;7.80;;;5.13;;
48875;SDS011;34689;51.644;5.618;2022-12-19T09:00:32;12.70;;;6.00;;
48875;SDS011;34689;51.644;5.618;2022-12-19T09:02:57;10.20;;;5.20;;
48875;SDS011;34689;51.644;5.618;2022-12-19T09:05:23;9.15;;;4.53;;
48875;SDS011;34689;51.644;5.618;2022-12-19T09:07:49;7.53;;;4.10;;
48875;SDS011;34689;51.644;5.618;2022-12-19T09:10:15;9.85;;;3.47;;
48875;SDS011;34689;51.644;5.618;2022-12-19T09:12:41;5.90;;;3.15;;
48875;SDS011;34689;51.644;5.618;2022-12-19T09:15:07;7.13;;;4.15;;
48875;SDS011;34689;51.644;5.618;2022-12-19T09:17:33;8.15;;;3.80;;
48875;SDS011;34689;51.644;5.618;2022-12-19T09:19:58;6.68;;;3.63;;
48875;SDS011;34689;51.644;5.618;2022-12-19T09:22:24;8.05;;;3.75;;
48875;SDS011;34689;51.644;5.618;2022-12-19T09:24:50;6.30;;;4.05;;
48875;SDS011;34689;51.644;5.618;2022-12-19T09:27:16;5.80;;;3.08;;
48875;SDS011;34689;51.644;5.618;2022-12-19T09:29:41;9.32;;;4.57;;
48875;SDS011;34689;51.644;5.618;2022-12-19T09:32:08;4.65;;;2.75;;
48875;SDS011;34689;51.644;5.618;2022-12-19T09:34:34;7.50;;;3.80;;
48875;SDS011;34689;51.644;5.618;2022-12-19T09:37:00;6.13;;;4.10;;
48875;SDS011;34689;51.644;5.618;2022-12-19T09:39:26;8.18;;;3.95;;
48875;SDS011;34689;51.644;5.618;2022-12-19T09:47:18;5.07;;;3.08;;
48875;SDS011;34689;51.644;5.618;2022-12-19T09:49:52;7.90;;;4.03;;
48875;SDS011;34689;51.644;5.618;2022-12-19T10:00:16;8.00;;;2.95;;
48875;SDS011;34689;51.644;5.618;2022-12-19T10:07:52;6.72;;;3.47;;
48875;SDS011;34689;51.644;5.618;2022-12-19T10:10:30;7.25;;;3.88;;
48875;SDS011;34689;51.644;5.618;2022-12-19T10:13:08;8.25;;;4.22;;
48875;SDS011;34689;51.644;5.618;2022-12-19T10:19:04;6.13;;;4.00;;
48875;SDS011;34689;51.644;5.618;2022-12-19T10:26:59;7.47;;;4.00;;
48875;SDS011;34689;51.644;5.618;2022-12-19T10:32:01;5.55;;;3.42;;
48875;SDS011;34689;51.644;5.618;2022-12-19T10:34:46;6.30;;;3.15;;
48875;SDS011;34689;51.644;5.618;2022-12-19T10:37:19;7.95;;;3.47;;
48875;SDS011;34689;51.644;5.618;2022-12-19T10:42:49;5.70;;;3.03;;
48875;SDS011;34689;51.644;5.618;2022-12-19T10:45:33;3.78;;;2.65;;
48875;SDS011;34689;51.644;5.618;2022-12-19T10:48:07;4.50;;;2.33;;
48875;SDS011;34689;51.644;5.618;2022-12-19T10:50:39;6.38;;;3.33;;
48875;SDS011;34689;51.644;5.618;2022-12-19T10:53:06;3.40;;;2.22;;
48875;SDS011;34689;51.644;5.618;2022-12-19T10:58:22;3.80;;;2.40;;
48875;SDS011;34689;51.644;5.618;2022-12-19T11:03:37;5.93;;;3.55;;
48875;SDS011;34689;51.644;5.618;2022-12-19T11:06:05;3.53;;;2.45;;
48875;SDS011;34689;51.644;5.618;2022-12-19T11:11:45;4.90;;;2.97;;
48875;SDS011;34689;51.644;5.618;2022-12-19T11:14:26;4.32;;;2.85;;
48875;SDS011;34689;51.644;5.618;2022-12-19T11:16:53;4.72;;;2.92;;
48875;SDS011;34689;51.644;5.618;2022-12-19T11:22:02;6.28;;;3.67;;
48875;SDS011;34689;51.644;5.618;2022-12-19T11:24:44;5.50;;;3.13;;
48875;SDS011;34689;51.644;5.618;2022-12-19T11:30:22;4.90;;;2.72;;
48875;SDS011;34689;51.644;5.618;2022-12-19T11:35:55;5.70;;;3.10;;
48875;SDS011;34689;51.644;5.618;2022-12-19T11:43:55;5.50;;;2.35;;
48875;SDS011;34689;51.644;5.618;2022-12-19T11:54:38;5.53;;;3.05;;
48875;SDS011;34689;51.644;5.618;2022-12-19T11:57:19;5.30;;;3.17;;
48875;SDS011;34689;51.644;5.618;2022-12-19T11:59:46;3.47;;;2.10;;
48875;SDS011;34689;51.644;5.618;2022-12-19T12:05:44;7.03;;;3.28;;
48875;SDS011;34689;51.644;5.618;2022-12-19T12:11:37;4.80;;;2.42;;
48875;SDS011;34689;51.644;5.618;2022-12-19T12:14:20;3.20;;;2.58;;
48875;SDS011;34689;51.644;5.618;2022-12-19T12:19:32;3.92;;;2.35;;
48875;SDS011;34689;51.644;5.618;2022-12-19T12:25:15;7.22;;;3.10;;
48875;SDS011;34689;51.644;5.618;2022-12-19T12:28:01;5.18;;;2.50;;
48875;SDS011;34689;51.644;5.618;2022-12-19T12:36:13;5.05;;;2.20;;
48875;SDS011;34689;51.644;5.618;2022-12-19T12:38:48;3.47;;;2.53;;
48875;SDS011;34689;51.644;5.618;2022-12-19T12:41:57;4.70;;;2.78;;
48875;SDS011;34689;51.644;5.618;2022-12-19T12:44:45;2.47;;;1.70;;
48875;SDS011;34689;51.644;5.618;2022-12-19T12:47:16;6.03;;;2.10;;
48875;SDS011;34689;51.644;5.618;2022-12-19T12:49:50;3.03;;;1.90;;
48875;SDS011;34689;51.644;5.618;2022-12-19T12:52:28;3.78;;;2.20;;
48875;SDS011;34689;51.644;5.618;2022-12-19T12:57:56;4.50;;;2.47;;
48875;SDS011;34689;51.644;5.618;2022-12-19T13:11:00;3.08;;;2.15;;
48875;SDS011;34689;51.644;5.618;2022-12-19T13:14:39;4.00;;;2.03;;
48875;SDS011;34689;51.644;5.618;2022-12-19T13:43:40;8.73;;;2.75;;
48875;SDS011;34689;51.644;5.618;2022-12-19T13:46:22;5.57;;;2.00;;
48875;SDS011;34689;51.644;5.618;2022-12-19T13:48:49;2.30;;;1.42;;
48875;SDS011;34689;51.644;5.618;2022-12-19T13:51:18;2.78;;;1.67;;
48875;SDS011;34689;51.644;5.618;2022-12-19T13:53:43;2.45;;;1.95;;
48875;SDS011;34689;51.644;5.618;2022-12-19T13:56:13;3.80;;;1.65;;
48875;SDS011;34689;51.644;5.618;2022-12-19T14:01:28;3.65;;;1.67;;
48875;SDS011;34689;51.644;5.618;2022-12-19T14:03:57;2.53;;;1.27;;
48875;SDS011;34689;51.644;5.618;2022-12-19T14:06:38;4.45;;;1.35;;
48875;SDS011;34689;51.644;5.618;2022-12-19T14:11:59;2.72;;;1.55;;
48875;SDS011;34689;51.644;5.618;2022-12-19T14:14:27;2.22;;;1.30;;
48875;SDS011;34689;51.644;5.618;2022-12-19T14:17:13;4.18;;;1.80;;
48875;SDS011;34689;51.644;5.618;2022-12-19T14:19:42;1.75;;;1.27;;
48875;SDS011;34689;51.644;5.618;2022-12-19T14:22:17;1.92;;;1.15;;
48875;SDS011;34689;51.644;5.618;2022-12-19T14:24:56;5.90;;;2.20;;
48875;SDS011;34689;51.644;5.618;2022-12-19T14:27:58;2.22;;;1.20;;
48875;SDS011;34689;51.644;5.618;2022-12-19T14:30:27;3.65;;;1.58;;
48875;SDS011;34689;51.644;5.618;2022-12-19T14:32:56;3.75;;;1.58;;
48875;SDS011;34689;51.644;5.618;2022-12-19T14:35:27;2.22;;;1.48;;
48875;SDS011;34689;51.644;5.618;2022-12-19T14:37:59;4.70;;;2.10;;
48875;SDS011;34689;51.644;5.618;2022-12-19T14:40:28;4.18;;;1.42;;
48875;SDS011;34689;51.644;5.618;2022-12-19T14:42:57;3.55;;;1.58;;
48875;SDS011;34689;51.644;5.618;2022-12-19T14:45:47;1.65;;;1.10;;
48875;SDS011;34689;51.644;5.618;2022-12-19T14:48:26;1.98;;;1.33;;
48875;SDS011;34689;51.644;5.618;2022-12-19T14:51:04;2.58;;;1.60;;
48875;SDS011;34689;51.644;5.618;2022-12-19T14:53:33;2.70;;;1.73;;
48875;SDS011;34689;51.644;5.618;2022-12-19T14:56:06;2.60;;;1.50;;
48875;SDS011;34689;51.644;5.618;2022-12-19T14:58:40;1.90;;;1.55;;
48875;SDS011;34689;51.644;5.618;2022-12-19T15:01:20;6.47;;;2.03;;
48875;SDS011;34689;51.644;5.618;2022-12-19T15:03:55;2.42;;;1.40;;
48875;SDS011;34689;51.644;5.618;2022-12-19T15:06:28;4.25;;;1.95;;
48875;SDS011;34689;51.644;5.618;2022-12-19T15:08:58;1.33;;;1.00;;
48875;SDS011;34689;51.644;5.618;2022-12-19T15:11:32;1.80;;;1.58;;
48875;SDS011;34689;51.644;5.618;2022-12-19T15:14:25;2.70;;;1.25;;
48875;SDS011;34689;51.644;5.618;2022-12-19T15:17:01;2.92;;;1.42;;
48875;SDS011;34689;51.644;5.618;2022-12-19T15:19:29;2.33;;;1.50;;
48875;SDS011;34689;51.644;5.618;2022-12-19T15:21:55;1.30;;;1.05;;
48875;SDS011;34689;51.644;5.618;2022-12-19T15:24:20;1.55;;;1.08;;
48875;SDS011;34689;51.644;5.618;2022-12-19T15:26:48;8.65;;;1.70;;
48875;SDS011;34689;51.644;5.618;2022-12-19T15:29:16;2.80;;;1.27;;
48875;SDS011;34689;51.644;5.618;2022-12-19T15:31:43;2.80;;;1.52;;
48875;SDS011;34689;51.644;5.618;2022-12-19T15:36:37;2.03;;;1.30;;
48875;SDS011;34689;51.644;5.618;2022-12-19T15:39:03;2.33;;;1.40;;
48875;SDS011;34689;51.644;5.618;2022-12-19T15:41:29;2.45;;;1.25;;
48875;SDS011;34689;51.644;5.618;2022-12-19T15:43:55;4.90;;;1.50;;
48875;SDS011;34689;51.644;5.618;2022-12-19T15:46:23;3.08;;;1.75;;
48875;SDS011;34689;51.644;5.618;2022-12-19T15:48:51;1.83;;;0.90;;
48875;SDS011;34689;51.644;5.618;2022-12-19T15:51:17;3.45;;;1.45;;
48875;SDS011;34689;51.644;5.618;2022-12-19T15:53:42;2.53;;;1.40;;
48875;SDS011;34689;51.644;5.618;2022-12-19T15:56:14;3.85;;;1.48;;
48875;SDS011;34689;51.644;5.618;2022-12-19T15:58:42;2.80;;;1.33;;
48875;SDS011;34689;51.644;5.618;2022-12-19T16:01:08;2.75;;;1.70;;
48875;SDS011;34689;51.644;5.618;2022-12-19T16:03:36;2.67;;;1.40;;
48875;SDS011;34689;51.644;5.618;2022-12-19T16:06:04;2.47;;;1.40;;
48875;SDS011;34689;51.644;5.618;2022-12-19T16:08:35;1.70;;;1.17;;
48875;SDS011;34689;51.644;5.618;2022-12-19T16:11:01;1.85;;;1.13;;
48875;SDS011;34689;51.644;5.618;2022-12-19T16:13:28;2.97;;;1.95;;
48875;SDS011;34689;51.644;5.618;2022-12-19T16:15:56;1.65;;;1.30;;
48875;SDS011;34689;51.644;5.618;2022-12-19T16:18:22;3.30;;;1.55;;
48875;SDS011;34689;51.644;5.618;2022-12-19T16:20:48;3.80;;;2.63;;
48875;SDS011;34689;51.644;5.618;2022-12-19T16:23:14;2.58;;;1.10;;
48875;SDS011;34689;51.644;5.618;2022-12-19T16:25:44;2.97;;;1.75;;
48875;SDS011;34689;51.644;5.618;2022-12-19T16:28:15;2.28;;;0.90;;
48875;SDS011;34689;51.644;5.618;2022-12-19T16:30:42;2.28;;;1.45;;
48875;SDS011;34689;51.644;5.618;2022-12-19T16:33:18;1.67;;;1.33;;
48875;SDS011;34689;51.644;5.618;2022-12-19T16:35:45;1.60;;;0.90;;
48875;SDS011;34689;51.644;5.618;2022-12-19T16:38:12;5.15;;;1.73;;
48875;SDS011;34689;51.644;5.618;2022-12-19T16:40:38;7.93;;;1.98;;
48875;SDS011;34689;51.644;5.618;2022-12-19T16:43:05;2.95;;;1.63;;
48875;SDS011;34689;51.644;5.618;2022-12-19T16:45:39;2.92;;;1.52;;
48875;SDS011;34689;51.644;5.618;2022-12-19T16:48:24;1.73;;;1.25;;
48875;SDS011;34689;51.644;5.618;2022-12-19T16:50:53;3.88;;;1.63;;
48875;SDS011;34689;51.644;5.618;2022-12-19T16:53:20;2.60;;;1.60;;
48875;SDS011;34689;51.644;5.618;2022-12-19T16:55:46;3.42;;;2.05;;
48875;SDS011;34689;51.644;5.618;2022-12-19T16:58:14;1.85;;;1.23;;
48875;SDS011;34689;51.644;5.618;2022-12-19T17:00:44;2.08;;;1.20;;
48875;SDS011;34689;51.644;5.618;2022-12-19T17:06:12;1.17;;;0.75;;
48875;SDS011;34689;51.644;5.618;2022-12-19T17:08:39;5.65;;;1.45;;
48875;SDS011;34689;51.644;5.618;2022-12-19T17:11:10;2.63;;;1.40;;
48875;SDS011;34689;51.644;5.618;2022-12-19T17:13:46;1.17;;;0.98;;
48875;SDS011;34689;51.644;5.618;2022-12-19T17:29:14;2.08;;;1.02;;
48875;SDS011;34689;51.644;5.618;2022-12-19T17:31:41;2.40;;;1.38;;
48875;SDS011;34689;51.644;5.618;2022-12-19T17:34:19;1.45;;;1.00;;
48875;SDS011;34689;51.644;5.618;2022-12-19T17:36:50;2.97;;;1.35;;
48875;SDS011;34689;51.644;5.618;2022-12-19T17:39:17;1.67;;;1.10;;
48875;SDS011;34689;51.644;5.618;2022-12-19T17:41:45;3.22;;;1.20;;